sensor_id;sensor_type;location;lat;lon;timestamp;P1;durP1;ratioP1;P2;durP2;ratioP2
58101;SDS011;52034;51.926;6.320;2022-10-19T00:01:07;4.55;;;3.03;;
58101;SDS011;52034;51.926;6.320;2022-10-19T00:02:31;3.85;;;2.90;;
58101;SDS011;52034;51.926;6.320;2022-10-19T00:03:51;3.30;;;3.10;;
58101;SDS011;52034;51.926;6.320;2022-10-19T00:05:11;3.05;;;2.85;;
58101;SDS011;52034;51.926;6.320;2022-10-19T00:06:32;3.53;;;3.08;;
58101;SDS011;52034;51.926;6.320;2022-10-19T00:07:52;3.50;;;3.30;;
58101;SDS011;52034;51.926;6.320;2022-10-19T00:09:13;3.70;;;3.22;;
58101;SDS011;52034;51.926;6.320;2022-10-19T00:10:34;3.55;;;3.28;;
58101;SDS011;52034;51.926;6.320;2022-10-19T00:11:57;3.40;;;3.10;;
58101;SDS011;52034;51.926;6.320;2022-10-19T00:13:16;3.38;;;3.17;;
58101;SDS011;52034;51.926;6.320;2022-10-19T00:14:35;3.22;;;3.03;;
58101;SDS011;52034;51.926;6.320;2022-10-19T00:15:55;3.42;;;3.13;;
58101;SDS011;52034;51.926;6.320;2022-10-19T00:17:13;3.70;;;3.40;;
58101;SDS011;52034;51.926;6.320;2022-10-19T00:18:33;3.80;;;3.50;;
58101;SDS011;52034;51.926;6.320;2022-10-19T00:19:52;3.20;;;3.00;;
58101;SDS011;52034;51.926;6.320;2022-10-19T00:21:12;3.33;;;3.10;;
58101;SDS011;52034;51.926;6.320;2022-10-19T00:22:32;2.92;;;2.83;;
58101;SDS011;52034;51.926;6.320;2022-10-19T00:23:51;3.60;;;3.30;;
58101;SDS011;52034;51.926;6.320;2022-10-19T00:25:10;3.50;;;3.30;;
58101;SDS011;52034;51.926;6.320;2022-10-19T00:26:29;3.13;;;2.92;;
58101;SDS011;52034;51.926;6.320;2022-10-19T00:27:48;3.45;;;3.00;;
58101;SDS011;52034;51.926;6.320;2022-10-19T00:29:09;3.42;;;3.15;;
58101;SDS011;52034;51.926;6.320;2022-10-19T00:30:29;3.40;;;3.20;;
58101;SDS011;52034;51.926;6.320;2022-10-19T00:31:49;3.60;;;3.30;;
58101;SDS011;52034;51.926;6.320;2022-10-19T00:33:08;3.88;;;3.00;;
58101;SDS011;52034;51.926;6.320;2022-10-19T00:34:28;3.28;;;3.05;;
58101;SDS011;52034;51.926;6.320;2022-10-19T00:35:48;3.28;;;3.08;;
58101;SDS011;52034;51.926;6.320;2022-10-19T00:37:08;3.33;;;3.13;;
58101;SDS011;52034;51.926;6.320;2022-10-19T00:38:27;3.45;;;3.15;;
58101;SDS011;52034;51.926;6.320;2022-10-19T00:39:46;3.97;;;3.00;;
58101;SDS011;52034;51.926;6.320;2022-10-19T00:41:05;3.30;;;3.10;;
58101;SDS011;52034;51.926;6.320;2022-10-19T00:42:24;2.75;;;2.65;;
58101;SDS011;52034;51.926;6.320;2022-10-19T00:43:53;2.70;;;2.50;;
58101;SDS011;52034;51.926;6.320;2022-10-19T00:45:14;2.80;;;2.60;;
58101;SDS011;52034;51.926;6.320;2022-10-19T00:46:35;6.45;;;2.60;;
58101;SDS011;52034;51.926;6.320;2022-10-19T00:47:56;2.55;;;2.45;;
58101;SDS011;52034;51.926;6.320;2022-10-19T00:49:19;2.78;;;2.65;;
58101;SDS011;52034;51.926;6.320;2022-10-19T00:50:41;2.92;;;2.60;;
58101;SDS011;52034;51.926;6.320;2022-10-19T00:52:05;2.45;;;2.25;;
58101;SDS011;52034;51.926;6.320;2022-10-19T00:53:26;2.50;;;2.40;;
58101;SDS011;52034;51.926;6.320;2022-10-19T00:54:46;2.97;;;2.30;;
58101;SDS011;52034;51.926;6.320;2022-10-19T00:56:09;2.58;;;2.30;;
58101;SDS011;52034;51.926;6.320;2022-10-19T00:57:30;3.60;;;2.90;;
58101;SDS011;52034;51.926;6.320;2022-10-19T00:58:50;2.60;;;2.40;;
58101;SDS011;52034;51.926;6.320;2022-10-19T01:00:09;2.50;;;2.40;;
58101;SDS011;52034;51.926;6.320;2022-10-19T01:01:28;3.72;;;2.45;;
58101;SDS011;52034;51.926;6.320;2022-10-19T01:02:48;2.63;;;2.53;;
58101;SDS011;52034;51.926;6.320;2022-10-19T01:04:08;2.65;;;2.55;;
58101;SDS011;52034;51.926;6.320;2022-10-19T01:05:27;2.60;;;2.50;;
58101;SDS011;52034;51.926;6.320;2022-10-19T01:06:46;2.55;;;2.38;;
58101;SDS011;52034;51.926;6.320;2022-10-19T01:08:05;2.55;;;2.42;;
58101;SDS011;52034;51.926;6.320;2022-10-19T01:09:26;2.83;;;2.53;;
58101;SDS011;52034;51.926;6.320;2022-10-19T01:16:10;3.45;;;2.70;;
58101;SDS011;52034;51.926;6.320;2022-10-19T01:19:33;2.67;;;2.58;;
58101;SDS011;52034;51.926;6.320;2022-10-19T01:21:18;2.70;;;2.60;;
58101;SDS011;52034;51.926;6.320;2022-10-19T01:26:30;3.45;;;3.17;;
58101;SDS011;52034;51.926;6.320;2022-10-19T01:28:08;3.65;;;3.33;;
58101;SDS011;52034;51.926;6.320;2022-10-19T01:29:48;3.13;;;2.80;;
58101;SDS011;52034;51.926;6.320;2022-10-19T01:31:41;3.38;;;3.03;;
58101;SDS011;52034;51.926;6.320;2022-10-19T01:33:05;3.78;;;3.10;;
58101;SDS011;52034;51.926;6.320;2022-10-19T01:34:35;2.97;;;2.78;;
58101;SDS011;52034;51.926;6.320;2022-10-19T01:38:14;3.30;;;2.95;;
58101;SDS011;52034;51.926;6.320;2022-10-19T01:39:49;3.60;;;3.15;;
58101;SDS011;52034;51.926;6.320;2022-10-19T01:41:19;4.75;;;3.10;;
58101;SDS011;52034;51.926;6.320;2022-10-19T01:46:12;4.38;;;3.65;;
58101;SDS011;52034;51.926;6.320;2022-10-19T01:47:40;8.38;;;3.97;;
58101;SDS011;52034;51.926;6.320;2022-10-19T01:49:09;7.18;;;3.80;;
58101;SDS011;52034;51.926;6.320;2022-10-19T01:50:36;8.63;;;4.22;;
58101;SDS011;52034;51.926;6.320;2022-10-19T01:52:01;4.43;;;3.97;;
58101;SDS011;52034;51.926;6.320;2022-10-19T01:53:22;3.80;;;3.47;;
58101;SDS011;52034;51.926;6.320;2022-10-19T01:54:44;3.95;;;3.55;;
58101;SDS011;52034;51.926;6.320;2022-10-19T01:56:05;4.45;;;4.05;;
58101;SDS011;52034;51.926;6.320;2022-10-19T01:57:27;5.43;;;3.92;;
58101;SDS011;52034;51.926;6.320;2022-10-19T01:58:49;7.03;;;4.32;;
58101;SDS011;52034;51.926;6.320;2022-10-19T02:00:09;5.07;;;4.00;;
58101;SDS011;52034;51.926;6.320;2022-10-19T02:01:33;4.30;;;3.90;;
58101;SDS011;52034;51.926;6.320;2022-10-19T02:02:53;4.40;;;4.00;;
58101;SDS011;52034;51.926;6.320;2022-10-19T02:04:14;4.32;;;3.92;;
58101;SDS011;52034;51.926;6.320;2022-10-19T02:05:34;4.63;;;4.10;;
58101;SDS011;52034;51.926;6.320;2022-10-19T02:06:54;4.10;;;3.70;;
58101;SDS011;52034;51.926;6.320;2022-10-19T02:08:14;5.40;;;4.30;;
58101;SDS011;52034;51.926;6.320;2022-10-19T02:09:36;4.78;;;4.30;;
58101;SDS011;52034;51.926;6.320;2022-10-19T02:10:56;5.45;;;4.03;;
58101;SDS011;52034;51.926;6.320;2022-10-19T02:12:15;6.32;;;3.70;;
58101;SDS011;52034;51.926;6.320;2022-10-19T02:13:35;3.53;;;3.33;;
58101;SDS011;52034;51.926;6.320;2022-10-19T02:14:55;3.45;;;3.25;;
58101;SDS011;52034;51.926;6.320;2022-10-19T02:16:26;3.47;;;3.17;;
58101;SDS011;52034;51.926;6.320;2022-10-19T02:17:48;3.80;;;3.60;;
58101;SDS011;52034;51.926;6.320;2022-10-19T02:19:09;5.18;;;3.50;;
58101;SDS011;52034;51.926;6.320;2022-10-19T02:20:29;4.10;;;3.25;;
58101;SDS011;52034;51.926;6.320;2022-10-19T02:21:49;3.05;;;2.80;;
58101;SDS011;52034;51.926;6.320;2022-10-19T02:23:08;3.83;;;3.08;;
58101;SDS011;52034;51.926;6.320;2022-10-19T02:24:27;3.47;;;3.17;;
58101;SDS011;52034;51.926;6.320;2022-10-19T02:25:46;3.38;;;3.00;;
58101;SDS011;52034;51.926;6.320;2022-10-19T02:27:06;3.05;;;2.85;;
58101;SDS011;52034;51.926;6.320;2022-10-19T02:28:26;3.13;;;2.83;;
58101;SDS011;52034;51.926;6.320;2022-10-19T02:29:46;3.13;;;2.83;;
58101;SDS011;52034;51.926;6.320;2022-10-19T02:31:05;3.50;;;3.20;;
58101;SDS011;52034;51.926;6.320;2022-10-19T02:32:24;3.58;;;3.30;;
58101;SDS011;52034;51.926;6.320;2022-10-19T02:33:43;7.07;;;3.03;;
58101;SDS011;52034;51.926;6.320;2022-10-19T02:35:03;4.28;;;3.47;;
58101;SDS011;52034;51.926;6.320;2022-10-19T02:36:23;3.50;;;3.22;;
58101;SDS011;52034;51.926;6.320;2022-10-19T02:37:42;4.68;;;3.20;;
58101;SDS011;52034;51.926;6.320;2022-10-19T02:39:02;4.43;;;3.17;;
58101;SDS011;52034;51.926;6.320;2022-10-19T02:40:21;3.40;;;3.10;;
58101;SDS011;52034;51.926;6.320;2022-10-19T02:41:43;3.10;;;2.90;;
58101;SDS011;52034;51.926;6.320;2022-10-19T02:43:09;2.97;;;2.70;;
58101;SDS011;52034;51.926;6.320;2022-10-19T02:44:35;3.05;;;2.90;;
58101;SDS011;52034;51.926;6.320;2022-10-19T02:45:59;3.00;;;2.80;;
58101;SDS011;52034;51.926;6.320;2022-10-19T02:47:27;3.40;;;3.20;;
58101;SDS011;52034;51.926;6.320;2022-10-19T02:48:49;4.53;;;3.75;;
58101;SDS011;52034;51.926;6.320;2022-10-19T02:50:08;5.00;;;3.72;;
58101;SDS011;52034;51.926;6.320;2022-10-19T02:52:54;4.13;;;3.70;;
58101;SDS011;52034;51.926;6.320;2022-10-19T02:54:13;7.93;;;4.30;;
58101;SDS011;52034;51.926;6.320;2022-10-19T02:55:32;4.47;;;4.07;;
58101;SDS011;52034;51.926;6.320;2022-10-19T02:56:51;4.65;;;3.80;;
58101;SDS011;52034;51.926;6.320;2022-10-19T02:58:10;4.00;;;3.70;;
58101;SDS011;52034;51.926;6.320;2022-10-19T02:59:29;4.07;;;3.67;;
58101;SDS011;52034;51.926;6.320;2022-10-19T03:00:48;3.80;;;3.50;;
58101;SDS011;52034;51.926;6.320;2022-10-19T03:02:07;3.63;;;3.42;;
58101;SDS011;52034;51.926;6.320;2022-10-19T03:03:26;4.00;;;3.60;;
58101;SDS011;52034;51.926;6.320;2022-10-19T03:04:46;5.88;;;3.70;;
58101;SDS011;52034;51.926;6.320;2022-10-19T03:06:05;4.25;;;3.90;;
58101;SDS011;52034;51.926;6.320;2022-10-19T03:07:24;4.07;;;3.75;;
58101;SDS011;52034;51.926;6.320;2022-10-19T03:08:43;4.80;;;3.80;;
58101;SDS011;52034;51.926;6.320;2022-10-19T03:10:03;3.83;;;3.53;;
58101;SDS011;52034;51.926;6.320;2022-10-19T03:11:22;4.40;;;4.00;;
58101;SDS011;52034;51.926;6.320;2022-10-19T03:12:41;4.43;;;3.85;;
58101;SDS011;52034;51.926;6.320;2022-10-19T03:14:01;4.45;;;4.07;;
58101;SDS011;52034;51.926;6.320;2022-10-19T03:15:20;4.07;;;3.78;;
58101;SDS011;52034;51.926;6.320;2022-10-19T03:16:42;4.57;;;3.95;;
58101;SDS011;52034;51.926;6.320;2022-10-19T03:18:01;6.20;;;4.40;;
58101;SDS011;52034;51.926;6.320;2022-10-19T03:19:20;5.47;;;4.32;;
58101;SDS011;52034;51.926;6.320;2022-10-19T03:20:39;5.28;;;4.30;;
58101;SDS011;52034;51.926;6.320;2022-10-19T03:21:58;5.03;;;4.10;;
58101;SDS011;52034;51.926;6.320;2022-10-19T03:23:17;5.78;;;4.53;;
58101;SDS011;52034;51.926;6.320;2022-10-19T03:24:36;4.60;;;4.20;;
58101;SDS011;52034;51.926;6.320;2022-10-19T03:25:56;4.30;;;4.00;;
58101;SDS011;52034;51.926;6.320;2022-10-19T03:27:15;4.78;;;4.40;;
58101;SDS011;52034;51.926;6.320;2022-10-19T03:28:34;6.28;;;4.70;;
58101;SDS011;52034;51.926;6.320;2022-10-19T03:29:53;4.80;;;4.40;;
58101;SDS011;52034;51.926;6.320;2022-10-19T03:31:12;6.18;;;4.03;;
58101;SDS011;52034;51.926;6.320;2022-10-19T03:32:31;4.65;;;4.25;;
58101;SDS011;52034;51.926;6.320;2022-10-19T03:33:50;4.25;;;3.75;;
58101;SDS011;52034;51.926;6.320;2022-10-19T03:35:09;4.35;;;3.97;;
58101;SDS011;52034;51.926;6.320;2022-10-19T03:36:30;4.47;;;3.97;;
58101;SDS011;52034;51.926;6.320;2022-10-19T03:37:50;3.97;;;3.67;;
58101;SDS011;52034;51.926;6.320;2022-10-19T03:39:11;4.05;;;3.75;;
58101;SDS011;52034;51.926;6.320;2022-10-19T03:40:31;3.97;;;3.60;;
58101;SDS011;52034;51.926;6.320;2022-10-19T03:41:51;3.75;;;3.33;;
58101;SDS011;52034;51.926;6.320;2022-10-19T03:43:10;3.90;;;3.60;;
58101;SDS011;52034;51.926;6.320;2022-10-19T03:44:29;4.03;;;3.83;;
58101;SDS011;52034;51.926;6.320;2022-10-19T03:45:48;3.83;;;3.53;;
58101;SDS011;52034;51.926;6.320;2022-10-19T03:47:07;3.80;;;3.60;;
58101;SDS011;52034;51.926;6.320;2022-10-19T03:48:26;4.18;;;3.80;;
58101;SDS011;52034;51.926;6.320;2022-10-19T03:49:45;4.10;;;3.70;;
58101;SDS011;52034;51.926;6.320;2022-10-19T03:51:06;4.22;;;3.83;;
58101;SDS011;52034;51.926;6.320;2022-10-19T03:52:26;4.03;;;3.80;;
58101;SDS011;52034;51.926;6.320;2022-10-19T03:53:46;4.20;;;3.90;;
58101;SDS011;52034;51.926;6.320;2022-10-19T03:55:06;4.00;;;3.60;;
58101;SDS011;52034;51.926;6.320;2022-10-19T03:56:26;4.47;;;3.88;;
58101;SDS011;52034;51.926;6.320;2022-10-19T03:57:46;4.07;;;3.80;;
58101;SDS011;52034;51.926;6.320;2022-10-19T03:59:06;4.43;;;4.03;;
58101;SDS011;52034;51.926;6.320;2022-10-19T04:00:25;4.03;;;3.60;;
58101;SDS011;52034;51.926;6.320;2022-10-19T04:01:44;3.65;;;3.45;;
58101;SDS011;52034;51.926;6.320;2022-10-19T04:03:04;4.10;;;3.72;;
58101;SDS011;52034;51.926;6.320;2022-10-19T04:04:23;3.90;;;3.60;;
58101;SDS011;52034;51.926;6.320;2022-10-19T04:05:42;4.25;;;3.85;;
58101;SDS011;52034;51.926;6.320;2022-10-19T04:07:01;4.47;;;4.07;;
58101;SDS011;52034;51.926;6.320;2022-10-19T04:08:20;4.45;;;4.10;;
58101;SDS011;52034;51.926;6.320;2022-10-19T04:09:39;4.63;;;4.30;;
58101;SDS011;52034;51.926;6.320;2022-10-19T04:11:01;4.88;;;4.40;;
58101;SDS011;52034;51.926;6.320;2022-10-19T04:12:21;5.00;;;4.55;;
58101;SDS011;52034;51.926;6.320;2022-10-19T04:13:40;4.40;;;4.10;;
58101;SDS011;52034;51.926;6.320;2022-10-19T04:14:59;4.70;;;4.30;;
58101;SDS011;52034;51.926;6.320;2022-10-19T04:16:19;4.60;;;4.10;;
58101;SDS011;52034;51.926;6.320;2022-10-19T04:17:38;4.53;;;4.18;;
58101;SDS011;52034;51.926;6.320;2022-10-19T04:18:57;4.85;;;4.45;;
58101;SDS011;52034;51.926;6.320;2022-10-19T04:20:17;4.40;;;4.10;;
58101;SDS011;52034;51.926;6.320;2022-10-19T04:21:37;4.50;;;4.20;;
58101;SDS011;52034;51.926;6.320;2022-10-19T04:22:57;8.27;;;4.57;;
58101;SDS011;52034;51.926;6.320;2022-10-19T04:24:17;4.70;;;4.30;;
58101;SDS011;52034;51.926;6.320;2022-10-19T04:25:36;4.43;;;4.13;;
58101;SDS011;52034;51.926;6.320;2022-10-19T04:26:55;4.75;;;4.38;;
58101;SDS011;52034;51.926;6.320;2022-10-19T04:28:14;4.15;;;3.92;;
58101;SDS011;52034;51.926;6.320;2022-10-19T04:29:33;4.53;;;4.22;;
58101;SDS011;52034;51.926;6.320;2022-10-19T04:30:52;4.20;;;4.00;;
58101;SDS011;52034;51.926;6.320;2022-10-19T04:32:12;4.72;;;4.43;;
58101;SDS011;52034;51.926;6.320;2022-10-19T04:33:31;4.45;;;4.20;;
58101;SDS011;52034;51.926;6.320;2022-10-19T04:34:51;5.32;;;4.03;;
58101;SDS011;52034;51.926;6.320;2022-10-19T04:36:11;4.55;;;4.10;;
58101;SDS011;52034;51.926;6.320;2022-10-19T04:37:30;4.40;;;4.05;;
58101;SDS011;52034;51.926;6.320;2022-10-19T04:38:49;4.22;;;3.97;;
58101;SDS011;52034;51.926;6.320;2022-10-19T04:40:08;4.63;;;3.95;;
58101;SDS011;52034;51.926;6.320;2022-10-19T04:41:28;4.40;;;4.10;;
58101;SDS011;52034;51.926;6.320;2022-10-19T04:42:47;4.55;;;4.15;;
58101;SDS011;52034;51.926;6.320;2022-10-19T04:44:07;4.35;;;4.05;;
58101;SDS011;52034;51.926;6.320;2022-10-19T04:45:27;4.68;;;4.28;;
58101;SDS011;52034;51.926;6.320;2022-10-19T04:46:46;4.78;;;4.47;;
58101;SDS011;52034;51.926;6.320;2022-10-19T04:48:05;5.28;;;4.70;;
58101;SDS011;52034;51.926;6.320;2022-10-19T04:49:24;4.97;;;4.57;;
58101;SDS011;52034;51.926;6.320;2022-10-19T04:50:43;4.45;;;4.07;;
58101;SDS011;52034;51.926;6.320;2022-10-19T04:52:12;4.75;;;4.20;;
58101;SDS011;52034;51.926;6.320;2022-10-19T04:53:31;4.35;;;4.05;;
58101;SDS011;52034;51.926;6.320;2022-10-19T04:54:51;4.20;;;3.90;;
58101;SDS011;52034;51.926;6.320;2022-10-19T04:56:11;3.92;;;3.63;;
58101;SDS011;52034;51.926;6.320;2022-10-19T04:57:32;4.82;;;4.40;;
58101;SDS011;52034;51.926;6.320;2022-10-19T04:58:53;4.10;;;3.80;;
58101;SDS011;52034;51.926;6.320;2022-10-19T05:00:13;4.18;;;3.88;;
58101;SDS011;52034;51.926;6.320;2022-10-19T05:01:32;4.28;;;3.97;;
58101;SDS011;52034;51.926;6.320;2022-10-19T05:02:52;4.30;;;3.90;;
58101;SDS011;52034;51.926;6.320;2022-10-19T05:04:11;4.40;;;4.10;;
58101;SDS011;52034;51.926;6.320;2022-10-19T05:05:30;4.35;;;4.05;;
58101;SDS011;52034;51.926;6.320;2022-10-19T05:06:50;4.72;;;4.32;;
58101;SDS011;52034;51.926;6.320;2022-10-19T05:08:09;4.32;;;4.03;;
58101;SDS011;52034;51.926;6.320;2022-10-19T05:09:28;4.57;;;4.18;;
58101;SDS011;52034;51.926;6.320;2022-10-19T05:10:47;4.20;;;3.90;;
58101;SDS011;52034;51.926;6.320;2022-10-19T05:12:07;5.32;;;4.30;;
58101;SDS011;52034;51.926;6.320;2022-10-19T05:13:26;4.30;;;4.00;;
58101;SDS011;52034;51.926;6.320;2022-10-19T05:14:45;5.47;;;4.07;;
58101;SDS011;52034;51.926;6.320;2022-10-19T05:16:05;4.40;;;4.03;;
58101;SDS011;52034;51.926;6.320;2022-10-19T05:17:28;4.38;;;4.07;;
58101;SDS011;52034;51.926;6.320;2022-10-19T05:18:49;4.80;;;4.40;;
58101;SDS011;52034;51.926;6.320;2022-10-19T05:20:09;4.90;;;4.47;;
58101;SDS011;52034;51.926;6.320;2022-10-19T05:21:31;4.60;;;4.30;;
58101;SDS011;52034;51.926;6.320;2022-10-19T05:22:50;5.22;;;4.72;;
58101;SDS011;52034;51.926;6.320;2022-10-19T05:24:10;5.45;;;4.38;;
58101;SDS011;52034;51.926;6.320;2022-10-19T05:25:30;4.70;;;4.40;;
58101;SDS011;52034;51.926;6.320;2022-10-19T05:26:49;4.38;;;4.13;;
58101;SDS011;52034;51.926;6.320;2022-10-19T05:28:08;4.70;;;4.30;;
58101;SDS011;52034;51.926;6.320;2022-10-19T05:29:27;4.50;;;4.20;;
58101;SDS011;52034;51.926;6.320;2022-10-19T05:30:46;4.35;;;4.10;;
58101;SDS011;52034;51.926;6.320;2022-10-19T05:32:05;5.22;;;4.25;;
58101;SDS011;52034;51.926;6.320;2022-10-19T05:33:24;4.43;;;4.13;;
58101;SDS011;52034;51.926;6.320;2022-10-19T05:34:43;4.68;;;4.30;;
58101;SDS011;52034;51.926;6.320;2022-10-19T05:36:13;4.57;;;4.28;;
58101;SDS011;52034;51.926;6.320;2022-10-19T05:37:34;4.60;;;4.20;;
58101;SDS011;52034;51.926;6.320;2022-10-19T05:38:54;4.90;;;4.50;;
58101;SDS011;52034;51.926;6.320;2022-10-19T05:40:14;4.55;;;4.15;;
58101;SDS011;52034;51.926;6.320;2022-10-19T05:41:33;4.93;;;4.63;;
58101;SDS011;52034;51.926;6.320;2022-10-19T05:42:52;4.72;;;4.28;;
58101;SDS011;52034;51.926;6.320;2022-10-19T05:44:13;4.97;;;4.57;;
58101;SDS011;52034;51.926;6.320;2022-10-19T05:45:33;5.03;;;4.47;;
58101;SDS011;52034;51.926;6.320;2022-10-19T05:46:52;4.95;;;4.50;;
58101;SDS011;52034;51.926;6.320;2022-10-19T05:48:11;4.78;;;4.35;;
58101;SDS011;52034;51.926;6.320;2022-10-19T05:49:30;5.32;;;4.63;;
58101;SDS011;52034;51.926;6.320;2022-10-19T05:50:52;8.68;;;6.18;;
58101;SDS011;52034;51.926;6.320;2022-10-19T05:52:12;8.48;;;5.80;;
58101;SDS011;52034;51.926;6.320;2022-10-19T05:53:31;9.68;;;5.72;;
58101;SDS011;52034;51.926;6.320;2022-10-19T05:54:51;5.85;;;5.25;;
58101;SDS011;52034;51.926;6.320;2022-10-19T05:56:12;5.43;;;4.80;;
58101;SDS011;52034;51.926;6.320;2022-10-19T05:57:36;6.68;;;5.40;;
58101;SDS011;52034;51.926;6.320;2022-10-19T05:58:56;11.48;;;5.97;;
58101;SDS011;52034;51.926;6.320;2022-10-19T06:00:16;8.15;;;5.15;;
58101;SDS011;52034;51.926;6.320;2022-10-19T06:01:35;6.63;;;4.50;;
58101;SDS011;52034;51.926;6.320;2022-10-19T06:02:54;5.70;;;4.65;;
58101;SDS011;52034;51.926;6.320;2022-10-19T06:04:13;6.63;;;4.00;;
58101;SDS011;52034;51.926;6.320;2022-10-19T06:05:34;6.32;;;4.55;;
58101;SDS011;52034;51.926;6.320;2022-10-19T06:06:54;4.90;;;4.25;;
58101;SDS011;52034;51.926;6.320;2022-10-19T06:08:13;10.40;;;4.57;;
58101;SDS011;52034;51.926;6.320;2022-10-19T06:09:32;4.53;;;4.00;;
58101;SDS011;52034;51.926;6.320;2022-10-19T06:11:02;6.45;;;4.25;;
58101;SDS011;52034;51.926;6.320;2022-10-19T06:12:32;7.68;;;4.20;;
58101;SDS011;52034;51.926;6.320;2022-10-19T06:13:52;4.43;;;4.07;;
58101;SDS011;52034;51.926;6.320;2022-10-19T06:15:13;4.32;;;4.03;;
58101;SDS011;52034;51.926;6.320;2022-10-19T06:16:32;4.93;;;4.13;;
58101;SDS011;52034;51.926;6.320;2022-10-19T06:17:52;4.63;;;4.22;;
58101;SDS011;52034;51.926;6.320;2022-10-19T06:19:11;6.78;;;3.78;;
58101;SDS011;52034;51.926;6.320;2022-10-19T06:20:30;4.55;;;4.07;;
58101;SDS011;52034;51.926;6.320;2022-10-19T06:21:52;4.55;;;4.20;;
58101;SDS011;52034;51.926;6.320;2022-10-19T06:23:11;4.40;;;4.00;;
58101;SDS011;52034;51.926;6.320;2022-10-19T06:24:30;4.43;;;4.03;;
58101;SDS011;52034;51.926;6.320;2022-10-19T06:25:49;4.40;;;3.97;;
58101;SDS011;52034;51.926;6.320;2022-10-19T06:27:09;5.97;;;4.43;;
58101;SDS011;52034;51.926;6.320;2022-10-19T06:28:28;5.40;;;4.90;;
58101;SDS011;52034;51.926;6.320;2022-10-19T06:29:47;5.07;;;4.60;;
58101;SDS011;52034;51.926;6.320;2022-10-19T06:31:07;5.22;;;4.72;;
58101;SDS011;52034;51.926;6.320;2022-10-19T06:32:26;5.03;;;4.57;;
58101;SDS011;52034;51.926;6.320;2022-10-19T06:33:46;5.28;;;4.70;;
58101;SDS011;52034;51.926;6.320;2022-10-19T06:35:05;4.97;;;4.57;;
58101;SDS011;52034;51.926;6.320;2022-10-19T06:36:26;5.35;;;4.88;;
58101;SDS011;52034;51.926;6.320;2022-10-19T06:37:45;6.10;;;5.60;;
58101;SDS011;52034;51.926;6.320;2022-10-19T06:39:05;5.70;;;5.20;;
58101;SDS011;52034;51.926;6.320;2022-10-19T06:40:24;6.22;;;4.85;;
58101;SDS011;52034;51.926;6.320;2022-10-19T06:41:43;7.57;;;4.93;;
58101;SDS011;52034;51.926;6.320;2022-10-19T06:43:12;7.22;;;4.28;;
58101;SDS011;52034;51.926;6.320;2022-10-19T06:44:31;8.07;;;3.97;;
58101;SDS011;52034;51.926;6.320;2022-10-19T06:45:50;4.43;;;4.03;;
58101;SDS011;52034;51.926;6.320;2022-10-19T06:47:09;4.38;;;3.92;;
58101;SDS011;52034;51.926;6.320;2022-10-19T06:48:29;4.97;;;3.90;;
58101;SDS011;52034;51.926;6.320;2022-10-19T06:49:47;6.93;;;4.22;;
58101;SDS011;52034;51.926;6.320;2022-10-19T06:51:07;4.68;;;4.05;;
58101;SDS011;52034;51.926;6.320;2022-10-19T06:52:26;6.28;;;4.57;;
58101;SDS011;52034;51.926;6.320;2022-10-19T06:53:45;4.82;;;4.43;;
58101;SDS011;52034;51.926;6.320;2022-10-19T06:55:04;5.63;;;4.43;;
58101;SDS011;52034;51.926;6.320;2022-10-19T06:56:24;4.97;;;4.68;;
58101;SDS011;52034;51.926;6.320;2022-10-19T06:57:44;4.57;;;4.18;;
58101;SDS011;52034;51.926;6.320;2022-10-19T06:59:03;5.07;;;4.60;;
58101;SDS011;52034;51.926;6.320;2022-10-19T07:00:22;4.55;;;4.15;;
58101;SDS011;52034;51.926;6.320;2022-10-19T07:01:41;5.38;;;4.88;;
58101;SDS011;52034;51.926;6.320;2022-10-19T07:03:00;4.97;;;4.47;;
58101;SDS011;52034;51.926;6.320;2022-10-19T07:04:19;4.88;;;4.43;;
58101;SDS011;52034;51.926;6.320;2022-10-19T07:05:38;6.63;;;5.00;;
58101;SDS011;52034;51.926;6.320;2022-10-19T07:06:58;5.30;;;4.70;;
58101;SDS011;52034;51.926;6.320;2022-10-19T07:08:17;5.18;;;4.78;;
58101;SDS011;52034;51.926;6.320;2022-10-19T07:09:36;5.47;;;4.95;;
58101;SDS011;52034;51.926;6.320;2022-10-19T07:10:56;5.60;;;4.90;;
58101;SDS011;52034;51.926;6.320;2022-10-19T07:12:17;6.15;;;5.10;;
58101;SDS011;52034;51.926;6.320;2022-10-19T07:13:36;5.15;;;4.30;;
58101;SDS011;52034;51.926;6.320;2022-10-19T07:14:55;7.05;;;5.13;;
58101;SDS011;52034;51.926;6.320;2022-10-19T07:16:16;6.13;;;5.63;;
58101;SDS011;52034;51.926;6.320;2022-10-19T07:17:36;6.03;;;5.53;;
58101;SDS011;52034;51.926;6.320;2022-10-19T07:18:55;5.47;;;4.97;;
58101;SDS011;52034;51.926;6.320;2022-10-19T07:20:15;6.00;;;5.30;;
58101;SDS011;52034;51.926;6.320;2022-10-19T07:21:34;5.50;;;5.00;;
58101;SDS011;52034;51.926;6.320;2022-10-19T07:22:58;6.20;;;5.60;;
58101;SDS011;52034;51.926;6.320;2022-10-19T07:24:17;8.55;;;5.50;;
58101;SDS011;52034;51.926;6.320;2022-10-19T07:25:37;6.10;;;5.20;;
58101;SDS011;52034;51.926;6.320;2022-10-19T07:26:56;6.32;;;5.43;;
58101;SDS011;52034;51.926;6.320;2022-10-19T07:28:15;6.10;;;5.50;;
58101;SDS011;52034;51.926;6.320;2022-10-19T07:29:34;6.38;;;5.78;;
58101;SDS011;52034;51.926;6.320;2022-10-19T07:30:54;9.20;;;6.03;;
58101;SDS011;52034;51.926;6.320;2022-10-19T07:32:13;6.13;;;5.53;;
58101;SDS011;52034;51.926;6.320;2022-10-19T07:33:32;7.70;;;5.40;;
58101;SDS011;52034;51.926;6.320;2022-10-19T07:34:51;9.00;;;6.15;;
58101;SDS011;52034;51.926;6.320;2022-10-19T07:36:11;6.88;;;6.18;;
58101;SDS011;52034;51.926;6.320;2022-10-19T07:37:31;9.85;;;6.05;;
58101;SDS011;52034;51.926;6.320;2022-10-19T07:38:50;6.28;;;5.70;;
58101;SDS011;52034;51.926;6.320;2022-10-19T07:40:09;7.90;;;5.50;;
58101;SDS011;52034;51.926;6.320;2022-10-19T07:41:29;7.03;;;6.03;;
58101;SDS011;52034;51.926;6.320;2022-10-19T07:42:48;9.07;;;6.50;;
58101;SDS011;52034;51.926;6.320;2022-10-19T07:44:08;6.55;;;5.80;;
58101;SDS011;52034;51.926;6.320;2022-10-19T07:45:26;7.28;;;5.90;;
58101;SDS011;52034;51.926;6.320;2022-10-19T07:46:46;7.00;;;6.30;;
58101;SDS011;52034;51.926;6.320;2022-10-19T07:48:05;7.68;;;5.10;;
58101;SDS011;52034;51.926;6.320;2022-10-19T07:49:24;6.75;;;5.28;;
58101;SDS011;52034;51.926;6.320;2022-10-19T07:50:46;6.18;;;5.20;;
58101;SDS011;52034;51.926;6.320;2022-10-19T07:52:05;6.97;;;4.80;;
58101;SDS011;52034;51.926;6.320;2022-10-19T07:53:24;7.40;;;5.70;;
58101;SDS011;52034;51.926;6.320;2022-10-19T07:54:43;7.05;;;6.15;;
58101;SDS011;52034;51.926;6.320;2022-10-19T07:56:08;6.60;;;5.65;;
58101;SDS011;52034;51.926;6.320;2022-10-19T07:57:28;8.23;;;6.05;;
58101;SDS011;52034;51.926;6.320;2022-10-19T07:58:48;8.93;;;5.82;;
58101;SDS011;52034;51.926;6.320;2022-10-19T08:00:09;8.65;;;6.07;;
58101;SDS011;52034;51.926;6.320;2022-10-19T08:01:32;7.47;;;5.13;;
58101;SDS011;52034;51.926;6.320;2022-10-19T08:02:52;8.63;;;6.43;;
58101;SDS011;52034;51.926;6.320;2022-10-19T08:04:11;8.70;;;6.10;;
58101;SDS011;52034;51.926;6.320;2022-10-19T08:05:33;8.25;;;5.88;;
58101;SDS011;52034;51.926;6.320;2022-10-19T08:06:52;9.52;;;6.18;;
58101;SDS011;52034;51.926;6.320;2022-10-19T08:08:12;8.65;;;5.70;;
58101;SDS011;52034;51.926;6.320;2022-10-19T08:09:31;8.50;;;5.82;;
58101;SDS011;52034;51.926;6.320;2022-10-19T08:10:50;7.40;;;6.10;;
58101;SDS011;52034;51.926;6.320;2022-10-19T08:12:09;10.38;;;6.75;;
58101;SDS011;52034;51.926;6.320;2022-10-19T08:13:28;8.77;;;5.28;;
58101;SDS011;52034;51.926;6.320;2022-10-19T08:14:47;8.82;;;6.07;;
58101;SDS011;52034;51.926;6.320;2022-10-19T08:17:45;6.90;;;6.18;;
58101;SDS011;52034;51.926;6.320;2022-10-19T08:19:06;14.35;;;6.28;;
58101;SDS011;52034;51.926;6.320;2022-10-19T08:20:26;9.40;;;6.38;;
58101;SDS011;52034;51.926;6.320;2022-10-19T08:21:46;8.77;;;5.32;;
58101;SDS011;52034;51.926;6.320;2022-10-19T08:23:05;6.97;;;6.00;;
58101;SDS011;52034;51.926;6.320;2022-10-19T08:24:25;8.30;;;5.65;;
58101;SDS011;52034;51.926;6.320;2022-10-19T08:25:44;9.65;;;5.97;;